createdAt,value
2022-08-05T00:01:20.815Z,76.60
2022-08-05T00:06:33.333Z,77.20
2022-08-05T00:11:49.029Z,77.50
2022-08-05T00:16:54.049Z,79.00
2022-08-05T00:21:55.942Z,79.80
2022-08-05T00:26:58.542Z,80.40
2022-08-05T00:32:13.245Z,80.30
2022-08-05T00:37:17.319Z,81.10
2022-08-05T00:42:37.198Z,81.30
2022-08-05T00:47:57.077Z,82.10
2022-08-05T00:52:59.853Z,82.60
2022-08-05T00:58:02.505Z,82.90
2022-08-05T01:03:08.011Z,83.70
2022-08-05T01:08:30.291Z,84.40
2022-08-05T01:14:04.526Z,85.30
2022-08-05T01:19:56.862Z,85.40
2022-08-05T01:25:18.266Z,86.80
2022-08-05T01:30:20.412Z,87.50
2022-08-05T01:35:51.132Z,86.90
2022-08-05T01:40:58.167Z,86.80
2022-08-05T01:46:07.237Z,88.30
2022-08-05T01:51:18.957Z,89.10
2022-08-05T01:58:10.383Z,89.30
2022-08-05T02:01:48.417Z,90.80
2022-08-05T02:06:51.066Z,92.30
2022-08-05T02:11:58.874Z,93.50
2022-08-05T02:17:08.029Z,94.40
2022-08-05T02:22:26.394Z,95.40
2022-08-05T02:27:58.070Z,96.40
2022-08-05T02:32:58.749Z,97.70
2022-08-05T02:38:02.290Z,98.80
2022-08-05T02:43:07.295Z,99.90
2022-08-05T02:48:12.318Z,99.90
2022-08-05T02:53:18.907Z,99.90
2022-08-05T02:58:22.793Z,99.90
2022-08-05T03:03:34.090Z,99.90
2022-08-05T03:08:53.674Z,99.90
2022-08-05T03:14:02.752Z,99.90
2022-08-05T03:19:12.675Z,99.90
2022-08-05T03:24:26.835Z,99.90
2022-08-05T03:29:44.507Z,99.90
2022-08-05T03:34:51.196Z,99.90
2022-08-05T03:39:59.326Z,99.90
2022-08-05T03:45:21.116Z,99.90
2022-08-05T03:50:28.727Z,99.90
2022-08-05T03:56:03.680Z,99.90
2022-08-05T04:01:04.027Z,99.90
2022-08-05T04:06:06.945Z,99.90
2022-08-05T04:11:11.693Z,99.90
2022-08-05T04:16:14.522Z,99.90
2022-08-05T04:21:19.921Z,99.90
2022-08-05T04:26:38.664Z,99.90
2022-08-05T04:31:40.735Z,99.90
2022-08-05T04:36:46.122Z,99.90
2022-08-05T04:41:51.740Z,99.90
2022-08-05T04:46:53.489Z,99.90
2022-08-05T04:52:00.251Z,99.90
2022-08-05T04:57:02.409Z,99.90
2022-08-05T05:02:37.738Z,99.90
2022-08-05T05:07:29.560Z,99.90
2022-08-05T05:12:34.446Z,99.90
2022-08-05T05:17:55.864Z,99.90
2022-08-05T05:23:08.195Z,99.90
2022-08-05T05:28:11.693Z,99.90
2022-08-05T05:33:16.872Z,99.90
2022-08-05T05:38:27.001Z,99.90
2022-08-05T05:43:58.538Z,99.90
2022-08-05T05:48:51.262Z,99.90
2022-08-05T05:53:59.021Z,99.90
2022-08-05T05:59:05.407Z,99.90
2022-08-05T06:04:13.040Z,99.90
2022-08-05T06:09:26.710Z,99.90
2022-08-05T06:14:40.182Z,99.90
2022-08-05T06:19:42.211Z,99.90
2022-08-05T06:24:58.648Z,99.90
2022-08-05T06:30:04.432Z,99.90
2022-08-05T06:36:02.918Z,99.90
2022-08-05T06:40:44.475Z,99.90
2022-08-05T06:46:04.017Z,99.90
2022-08-05T06:51:09.488Z,99.90
2022-08-05T06:56:25.977Z,99.90
2022-08-05T07:01:32.405Z,99.90
2022-08-05T07:06:34.734Z,99.90
2022-08-05T07:11:39.695Z,99.90
2022-08-05T07:17:59.793Z,99.90
2022-08-05T07:22:12.563Z,99.90
2022-08-05T07:27:17.596Z,99.90
2022-08-05T07:32:19.369Z,99.90
2022-08-05T07:37:35.882Z,99.90
2022-08-05T07:42:37.966Z,99.90
2022-08-05T07:47:42.343Z,99.90
2022-08-05T07:52:44.605Z,99.90
2022-08-05T07:57:57.394Z,99.90
2022-08-05T08:03:14.882Z,99.90
2022-08-05T08:08:19.790Z,99.90
2022-08-05T08:13:29.084Z,99.90
2022-08-05T08:18:31.212Z,99.90
2022-08-05T08:24:01.282Z,99.90
2022-08-05T08:28:59.207Z,99.90
2022-08-05T08:34:01.729Z,99.90
2022-08-05T08:39:03.782Z,99.90
2022-08-05T08:45:20.485Z,99.90
2022-08-05T08:50:12.845Z,99.90
2022-08-05T08:54:56.347Z,99.90
2022-08-05T08:59:59.665Z,99.90
2022-08-05T09:05:17.616Z,99.90
2022-08-05T09:10:21.305Z,99.90
2022-08-05T09:15:29.105Z,99.90
2022-08-05T09:20:37.901Z,99.90
2022-08-05T09:26:01.064Z,99.90
2022-08-05T09:31:43.534Z,99.90
2022-08-05T09:36:45.934Z,99.90
2022-08-05T09:42:04.386Z,99.90
2022-08-05T09:47:12.643Z,99.90
2022-08-05T09:52:20.102Z,99.90
2022-08-05T09:57:35.234Z,99.90
2022-08-05T10:02:46.990Z,99.90
2022-08-05T10:08:36.010Z,99.90
2022-08-05T10:13:47.262Z,99.90
2022-08-05T10:18:49.937Z,99.90
2022-08-05T10:23:59.192Z,99.90
2022-08-05T10:29:02.549Z,99.90
2022-08-05T10:34:07.154Z,99.90
2022-08-05T10:39:25.285Z,99.90
2022-08-05T10:44:45.204Z,99.90
2022-08-05T10:50:32.088Z,99.90
2022-08-05T10:56:03.814Z,99.90
2022-08-05T11:01:02.964Z,99.90
2022-08-05T11:06:15.532Z,99.90
2022-08-05T11:11:44.311Z,99.90
2022-08-05T11:17:59.385Z,99.90
2022-08-05T11:22:49.745Z,99.90
2022-08-05T11:28:00.825Z,99.90
2022-08-05T11:33:25.654Z,99.90
2022-08-05T11:38:51.760Z,99.90
2022-08-05T11:44:40.473Z,99.90
2022-08-05T11:49:42.750Z,99.90
2022-08-05T11:54:55.004Z,99.90
2022-08-05T11:59:58.073Z,99.90
2022-08-05T12:05:06.968Z,99.90
2022-08-05T12:10:12.856Z,99.90
2022-08-05T12:15:20.970Z,99.90
2022-08-05T12:20:40.633Z,99.90
2022-08-05T12:25:53.482Z,99.90
2022-08-05T12:30:57.459Z,99.90
2022-08-05T12:36:08.080Z,99.90
2022-08-05T12:41:14.057Z,99.90
2022-08-05T12:46:31.215Z,99.90
2022-08-05T12:52:12.389Z,99.90
2022-08-05T12:57:09.160Z,99.90
2022-08-05T13:02:15.502Z,99.90
2022-08-05T13:07:55.834Z,99.90
2022-08-05T13:12:51.047Z,99.90
2022-08-05T13:18:00.157Z,99.90
2022-08-05T13:23:07.204Z,99.90
2022-08-05T13:28:10.697Z,99.90
2022-08-05T13:34:20.035Z,99.90
2022-08-05T13:38:38.503Z,99.90
2022-08-05T13:43:54.867Z,99.90
2022-08-05T13:49:00.985Z,99.90
2022-08-05T13:54:03.043Z,99.90
2022-08-05T13:59:06.248Z,99.90
2022-08-05T14:04:41.078Z,99.90
2022-08-05T14:09:46.393Z,99.90
2022-08-05T14:14:49.162Z,99.90
2022-08-05T14:19:56.817Z,99.90
2022-08-05T14:25:06.490Z,99.90
2022-08-05T14:30:26.426Z,99.90
2022-08-05T14:35:50.038Z,99.90
2022-08-05T14:40:50.395Z,99.90
2022-08-05T14:45:52.505Z,99.90
2022-08-05T14:50:55.494Z,99.90
2022-08-05T14:55:57.407Z,99.90
2022-08-05T15:01:01.393Z,99.90
2022-08-05T15:06:08.294Z,99.90
2022-08-05T15:11:15.150Z,99.90
2022-08-05T15:16:17.979Z,99.90
2022-08-05T15:21:20.976Z,99.90
2022-08-05T15:26:32.192Z,99.90
2022-08-05T15:31:34.684Z,99.90
2022-08-05T15:36:36.940Z,99.90
2022-08-05T15:41:55.910Z,99.90
2022-08-05T15:47:04.267Z,99.90
2022-08-05T15:52:16.422Z,99.90
2022-08-05T15:57:33.022Z,99.90
2022-08-05T16:02:37.206Z,99.90
2022-08-05T16:07:39.052Z,99.90
2022-08-05T16:12:48.882Z,99.90
2022-08-05T16:17:57.361Z,99.90
2022-08-05T16:22:59.921Z,99.90
2022-08-05T16:28:10.247Z,99.90
2022-08-05T16:33:12.362Z,99.90
2022-08-05T16:38:25.553Z,99.90
2022-08-05T16:43:32.614Z,99.90
2022-08-05T16:48:35.912Z,99.90
2022-08-05T16:54:03.990Z,99.90
2022-08-05T16:59:08.530Z,99.90
2022-08-05T17:04:10.570Z,99.90
2022-08-05T17:09:12.364Z,99.90
2022-08-05T17:14:34.073Z,99.90
2022-08-05T17:19:38.686Z,99.90
2022-08-05T17:24:42.341Z,99.90
2022-08-05T17:29:59.540Z,99.90
2022-08-05T17:35:03.104Z,99.90
2022-08-05T17:40:11.028Z,99.90
2022-08-05T17:45:20.825Z,99.90
2022-08-05T17:50:28.077Z,99.90
2022-08-05T17:55:38.368Z,99.90
2022-08-05T18:00:47.532Z,99.90
2022-08-05T18:05:53.347Z,99.90
2022-08-05T18:10:55.547Z,99.90
2022-08-05T18:15:59.191Z,99.90
2022-08-05T18:21:01.669Z,99.90
2022-08-05T18:26:03.543Z,99.90
2022-08-05T18:31:07.422Z,99.90
2022-08-05T18:36:15.670Z,99.90
2022-08-05T18:41:58.149Z,99.90
2022-08-05T18:46:41.120Z,99.90
2022-08-05T18:52:08.906Z,99.90
2022-08-05T18:57:15.202Z,99.90
2022-08-05T19:02:27.828Z,99.90
2022-08-05T19:07:46.087Z,99.90
2022-08-05T19:12:49.520Z,99.90
2022-08-05T19:17:59.837Z,99.90
2022-08-05T19:24:03.671Z,99.90
2022-08-05T19:28:35.036Z,99.90
2022-08-05T19:33:38.099Z,99.90
2022-08-05T19:38:43.786Z,99.90
2022-08-05T19:44:06.887Z,99.90
2022-08-05T19:49:08.011Z,99.90
2022-08-05T19:54:27.013Z,99.90
2022-08-05T20:00:00.607Z,99.90
2022-08-05T20:04:59.733Z,99.90
2022-08-05T20:10:04.850Z,99.90
2022-08-05T20:15:14.107Z,99.90
2022-08-05T20:20:16.154Z,99.90
2022-08-05T20:25:18.016Z,99.90
2022-08-05T20:30:19.910Z,99.90
2022-08-05T20:35:21.893Z,99.90
2022-08-05T20:40:23.767Z,99.90
2022-08-05T20:45:56.167Z,99.90
2022-08-05T20:50:47.427Z,99.90
2022-08-05T20:55:56.841Z,99.90
2022-08-05T21:01:09.988Z,99.90
2022-08-05T21:06:27.957Z,99.90
2022-08-05T21:12:07.417Z,99.90
2022-08-05T21:16:52.432Z,99.90
2022-08-05T21:21:54.280Z,99.90
2022-08-05T21:26:58.322Z,99.90
2022-08-05T21:32:02.570Z,99.90
2022-08-05T21:37:05.038Z,99.90
2022-08-05T21:42:07.217Z,99.90
2022-08-05T21:47:55.018Z,99.90
2022-08-05T21:52:51.524Z,99.90
2022-08-05T21:57:53.363Z,99.90
2022-08-05T22:02:56.317Z,99.90
2022-08-05T22:08:02.199Z,99.90
2022-08-05T22:14:06.506Z,99.90
2022-08-05T22:18:26.337Z,99.90
2022-08-05T22:24:02.432Z,99.90
2022-08-05T22:29:06.651Z,99.90
2022-08-05T22:34:08.435Z,99.90
2022-08-05T22:39:12.729Z,99.90
2022-08-05T22:44:14.926Z,99.90
2022-08-05T22:50:18.483Z,99.90
2022-08-05T22:54:48.987Z,99.90
2022-08-05T22:59:54.043Z,99.90
2022-08-05T23:04:56.311Z,99.90
2022-08-05T23:10:02.030Z,99.90
2022-08-05T23:15:08.762Z,99.90
2022-08-05T23:20:17.859Z,99.90
2022-08-05T23:25:52.670Z,99.90
2022-08-05T23:30:43.228Z,99.90
2022-08-05T23:35:45.834Z,99.90
2022-08-05T23:40:50.185Z,99.90
2022-08-05T23:45:52.261Z,99.90
2022-08-05T23:50:54.043Z,99.90
2022-08-05T23:55:56.377Z,99.90
